Time,TemperatureF,DewpointF,PressureIn,WindDirection,WindDirectionDegrees,WindSpeedMPH,WindSpeedGustMPH,Humidity,HourlyPrecipIn,Conditions,Clouds,dailyrainin,SoftwareType,DateUTC
2013-04-08 00:02:00,31.0,25.0,29.82,WNW,290,2.0,10.0,77,0.00,,,0.09,,2013-04-08 07:02:00,
2013-04-08 00:12:00,31.0,25.0,29.82,WNW,290,2.0,10.0,77,0.00,,,0.09,,2013-04-08 07:12:00,
2013-04-08 00:21:00,31.0,25.0,29.83,West,281,1.0,8.0,78,0.00,,,0.09,,2013-04-08 07:21:00,
2013-04-08 00:32:00,31.0,25.0,29.83,West,281,1.0,8.0,78,0.00,,,0.09,,2013-04-08 07:32:00,
2013-04-08 00:42:00,31.0,25.0,29.83,West,281,1.0,8.0,78,0.00,,,0.09,,2013-04-08 07:42:00,
2013-04-08 00:52:00,30.0,25.0,29.85,ENE,63,4.0,7.0,80,0.00,,,0.07,,2013-04-08 07:52:00,
2013-04-08 01:02:00,29.0,25.0,29.85,ENE,61,0.0,4.0,83,0.00,,,0.07,,2013-04-08 08:02:00,
2013-04-08 01:11:00,29.0,25.0,29.85,ENE,61,0.0,4.0,83,0.00,,,0.07,,2013-04-08 08:11:00,
2013-04-08 01:22:00,29.0,25.0,29.85,ENE,61,0.0,4.0,83,0.00,,,0.07,,2013-04-08 08:22:00,
2013-04-08 01:32:00,29.0,25.0,29.86,NE,51,1.0,6.0,83,0.00,,,0.07,,2013-04-08 08:32:00,
2013-04-08 01:42:00,29.0,26.0,29.87,NE,46,0.0,1.0,89,0.00,,,0.07,,2013-04-08 08:42:00,
2013-04-08 01:52:00,29.0,25.0,29.87,NE,46,0.0,2.0,85,0.00,,,0.07,,2013-04-08 08:52:00,
2013-04-08 02:01:00,28.0,24.0,29.88,NE,46,0.0,0.0,86,0.00,,,0.07,,2013-04-08 09:01:00,
2013-04-08 02:12:00,28.0,25.0,29.88,NE,46,0.0,1.0,88,0.00,,,0.07,,2013-04-08 09:12:00,
2013-04-08 02:22:00,28.0,25.0,29.88,NE,46,0.0,1.0,88,0.00,,,0.07,,2013-04-08 09:22:00,
2013-04-08 02:32:00,28.0,25.0,29.89,NE,46,0.0,2.0,88,0.00,,,0.07,,2013-04-08 09:32:00,
2013-04-08 02:42:00,28.0,25.0,29.89,NE,46,0.0,2.0,88,0.00,,,0.07,,2013-04-08 09:42:00,
2013-04-08 02:53:00,27.0,24.0,29.90,NE,46,0.0,2.0,89,0.00,,,0.07,,2013-04-08 09:53:00,
2013-04-08 03:02:00,26.0,23.0,29.91,NE,55,0.0,5.0,89,0.00,,,0.07,,2013-04-08 10:02:00,
2013-04-08 03:12:00,26.0,23.0,29.91,NE,55,0.0,5.0,89,0.00,,,0.07,,2013-04-08 10:12:00,
2013-04-08 03:22:00,26.0,23.0,29.92,NE,55,0.0,0.0,90,0.00,,,0.07,,2013-04-08 10:22:00,
2013-04-08 03:32:00,26.0,23.0,29.92,NE,55,0.0,1.0,90,0.00,,,0.06,,2013-04-08 10:32:00,
2013-04-08 03:42:00,26.0,23.0,29.92,NE,55,0.0,1.0,90,0.00,,,0.06,,2013-04-08 10:42:00,
2013-04-08 03:53:00,26.0,23.0,29.93,NE,55,0.0,2.0,90,0.00,,,0.06,,2013-04-08 10:53:00,
2013-04-08 04:02:00,25.0,23.0,29.93,NE,55,0.0,0.0,91,0.00,,,0.06,,2013-04-08 11:02:00,
2013-04-08 04:12:00,25.0,23.0,29.93,NE,55,0.0,0.0,91,0.00,,,0.06,,2013-04-08 11:12:00,
2013-04-08 04:22:00,25.0,23.0,29.93,NE,55,0.0,1.0,92,0.00,,,0.06,,2013-04-08 11:22:00,
2013-04-08 04:32:00,24.0,22.0,29.94,NE,55,0.0,1.0,93,0.00,,,0.06,,2013-04-08 11:32:00,
2013-04-08 04:42:00,24.0,22.0,29.94,NE,55,0.0,1.0,93,0.00,,,0.06,,2013-04-08 11:42:00,
2013-04-08 04:52:00,24.0,22.0,29.95,NE,55,0.0,0.0,93,0.00,,,0.06,,2013-04-08 11:52:00,
2013-04-08 05:01:00,24.0,23.0,29.96,NE,55,0.0,1.0,94,0.00,,,0.06,,2013-04-08 12:01:00,
2013-04-08 05:12:00,24.0,23.0,29.96,NE,55,0.0,1.0,94,0.00,,,0.06,,2013-04-08 12:12:00,
2013-04-08 05:22:00,24.0,22.0,29.97,NE,55,0.0,0.0,93,0.00,,,0.06,,2013-04-08 12:22:00,
2013-04-08 05:32:00,24.0,23.0,29.97,NE,55,0.0,2.0,94,0.00,,,0.05,,2013-04-08 12:32:00,
2013-04-08 05:42:00,24.0,23.0,29.97,NE,55,0.0,2.0,94,0.00,,,0.05,,2013-04-08 12:42:00,
2013-04-08 05:52:00,23.0,21.0,29.97,NE,55,0.0,1.0,93,0.00,,,0.05,,2013-04-08 12:52:00,
2013-04-08 06:02:00,23.0,21.0,29.98,NE,55,0.0,0.0,93,0.00,,,0.05,,2013-04-08 13:02:00,
2013-04-08 06:12:00,23.0,21.0,29.98,NE,55,0.0,0.0,93,0.00,,,0.05,,2013-04-08 13:12:00,
2013-04-08 06:22:00,23.0,21.0,29.98,NE,55,0.0,0.0,93,0.00,,,0.05,,2013-04-08 13:22:00,
2013-04-08 06:32:00,22.0,20.0,29.99,NE,55,0.0,1.0,93,0.00,,,0.05,,2013-04-08 13:32:00,
2013-04-08 06:42:00,22.0,20.0,29.99,NE,55,0.0,1.0,93,0.00,,,0.05,,2013-04-08 13:42:00,
2013-04-08 06:52:00,23.0,21.0,30.01,NE,55,0.0,3.0,93,0.00,,,0.05,,2013-04-08 13:52:00,
2013-04-08 07:02:00,23.0,21.0,30.02,NE,55,0.0,1.0,91,0.00,,,0.05,,2013-04-08 14:02:00,
2013-04-08 07:12:00,23.0,21.0,30.02,NE,55,0.0,1.0,91,0.00,,,0.05,,2013-04-08 14:12:00,
2013-04-08 07:22:00,24.0,22.0,30.03,NE,56,2.0,5.0,90,0.00,,,0.05,,2013-04-08 14:22:00,
2013-04-08 07:32:00,26.0,23.0,30.03,ENE,57,0.0,4.0,88,0.00,,,0.02,,2013-04-08 14:32:00,
2013-04-08 07:42:00,28.0,23.0,30.04,SW,233,1.0,6.0,81,0.00,,,0.02,,2013-04-08 14:42:00,
2013-04-08 07:52:00,28.0,23.0,30.04,SW,233,1.0,6.0,81,0.00,,,0.02,,2013-04-08 14:52:00,
2013-04-08 08:01:00,30.0,23.0,30.05,West,267,4.0,9.0,75,0.00,,,0.02,,2013-04-08 15:01:00,
2013-04-08 08:12:00,30.0,23.0,30.05,West,267,4.0,9.0,75,0.00,,,0.02,,2013-04-08 15:12:00,
2013-04-08 08:22:00,31.0,22.0,30.06,West,267,0.0,5.0,70,0.00,,,0.01,,2013-04-08 15:22:00,
2013-04-08 08:33:00,32.0,23.0,30.06,West,267,0.0,3.0,69,0.00,,,0.01,,2013-04-08 15:33:00,
2013-04-08 08:42:00,32.0,23.0,30.06,West,267,0.0,3.0,69,0.00,,,0.01,,2013-04-08 15:42:00,
2013-04-08 08:53:00,32.0,22.0,30.06,West,272,2.0,7.0,65,0.00,,,0.01,,2013-04-08 15:53:00,
2013-04-08 09:02:00,34.0,22.0,30.07,WNW,284,2.0,7.0,60,0.00,,,0.01,,2013-04-08 16:02:00,
2013-04-08 09:12:00,34.0,22.0,30.07,WNW,284,2.0,7.0,60,0.00,,,0.01,,2013-04-08 16:12:00,
2013-04-08 09:22:00,34.0,23.0,30.07,NE,42,3.0,6.0,65,0.00,,,0.01,,2013-04-08 16:22:00,
2013-04-08 09:32:00,34.0,23.0,30.07,NE,42,3.0,6.0,65,0.00,,,0.01,,2013-04-08 16:32:00,
2013-04-08 09:42:00,34.0,22.0,30.07,ENE,57,4.0,7.0,62,0.00,,,0.01,,2013-04-08 16:42:00,
2013-04-08 09:53:00,34.0,22.0,30.06,NE,39,0.0,4.0,62,0.00,,,0.01,,2013-04-08 16:53:00,
2013-04-08 10:02:00,35.0,21.0,30.07,SSE,159,1.0,3.0,56,0.00,,,0.01,,2013-04-08 17:02:00,
2013-04-08 10:11:00,35.0,21.0,30.06,SSW,204,4.0,9.0,57,0.00,,,0.01,,2013-04-08 17:11:00,
2013-04-08 10:22:00,35.0,21.0,30.06,SSW,204,4.0,9.0,57,0.00,,,0.01,,2013-04-08 17:22:00,
2013-04-08 10:32:00,36.0,23.0,30.07,SW,222,5.0,11.0,59,0.00,,,0.01,,2013-04-08 17:32:00,
2013-04-08 10:52:00,36.0,25.0,30.08,WSW,248,2.0,10.0,64,0.00,,,0.01,,2013-04-08 17:52:00,
2013-04-08 11:02:00,38.0,25.0,30.08,South,179,0.0,3.0,58,0.00,,,0.01,,2013-04-08 18:02:00,
2013-04-08 11:11:00,38.0,25.0,30.08,South,179,0.0,3.0,58,0.00,,,0.01,,2013-04-08 18:11:00,
2013-04-08 11:22:00,36.0,23.0,30.08,SSW,213,0.0,6.0,59,0.00,,,0.01,,2013-04-08 18:22:00,
2013-04-08 11:32:00,38.0,24.0,30.08,SW,227,3.0,7.0,56,0.00,,,0.01,,2013-04-08 18:32:00,
2013-04-08 11:42:00,38.0,24.0,30.09,WSW,254,0.0,3.0,57,0.00,,,0.01,,2013-04-08 18:42:00,
2013-04-08 11:52:00,38.0,24.0,30.09,WSW,254,0.0,3.0,57,0.00,,,0.01,,2013-04-08 18:52:00,
2013-04-08 12:02:00,40.0,25.0,30.09,SSW,202,0.0,6.0,55,0.00,,,0.01,,2013-04-08 19:02:00,
2013-04-08 12:12:00,40.0,25.0,30.09,SSW,202,0.0,6.0,55,0.00,,,0.01,,2013-04-08 19:12:00,
2013-04-08 12:22:00,40.0,23.0,30.09,SSE,167,1.0,7.0,50,0.00,,,0.01,,2013-04-08 19:22:00,
2013-04-08 12:42:00,44.0,24.0,30.09,ENE,59,9.0,16.0,45,0.00,,,0.01,,2013-04-08 19:42:00,
2013-04-08 12:52:00,44.0,24.0,30.09,ENE,59,9.0,16.0,45,0.00,,,0.01,,2013-04-08 19:52:00,
2013-04-08 13:02:00,44.0,23.0,30.08,North,355,4.0,17.0,44,0.00,,,0.01,,2013-04-08 20:02:00,
2013-04-08 13:12:00,44.0,23.0,30.08,North,355,4.0,17.0,44,0.00,,,0.01,,2013-04-08 20:12:00,
2013-04-08 13:22:00,46.0,25.0,30.09,NE,46,12.0,18.0,43,0.00,,,0.01,,2013-04-08 20:22:00,
2013-04-08 13:32:00,46.0,25.0,30.09,NE,46,12.0,18.0,43,0.00,,,0.01,,2013-04-08 20:32:00,
2013-04-08 13:42:00,46.0,25.0,30.09,NE,46,12.0,18.0,43,0.00,,,0.01,,2013-04-08 20:42:00,
2013-04-08 13:52:00,44.0,25.0,30.09,NE,36,12.0,26.0,46,0.00,,,0.01,,2013-04-08 20:52:00,
2013-04-08 14:01:00,45.0,25.0,30.09,North,360,12.0,18.0,46,0.00,,,0.01,,2013-04-08 21:01:00,
2013-04-08 14:12:00,45.0,25.0,30.09,North,360,12.0,18.0,46,0.00,,,0.01,,2013-04-08 21:12:00,
2013-04-08 14:22:00,46.0,25.0,30.09,ENE,58,10.0,18.0,44,0.00,,,0.01,,2013-04-08 21:22:00,
2013-04-08 14:32:00,45.0,24.0,30.10,ENE,57,9.0,16.0,44,0.00,,,0.01,,2013-04-08 21:32:00,
2013-04-08 14:42:00,45.0,24.0,30.10,ENE,57,9.0,16.0,44,0.00,,,0.01,,2013-04-08 21:42:00,
2013-04-08 14:53:00,45.0,24.0,30.10,ENE,57,9.0,16.0,44,0.00,,,0.01,,2013-04-08 21:53:00,
2013-04-08 15:02:00,44.0,25.0,30.10,NE,54,8.0,15.0,47,0.00,,,0.01,,2013-04-08 22:02:00,
2013-04-08 15:12:00,44.0,25.0,30.10,NE,54,8.0,15.0,47,0.00,,,0.01,,2013-04-08 22:12:00,
2013-04-08 15:22:00,44.0,25.0,30.10,WNW,294,7.0,14.0,47,0.00,,,0.00,,2013-04-08 22:22:00,
2013-04-08 15:32:00,44.0,25.0,30.10,WNW,294,7.0,14.0,47,0.00,,,0.00,,2013-04-08 22:32:00,
2013-04-08 15:42:00,44.0,25.0,30.11,WNW,298,4.0,13.0,47,0.00,,,0.00,,2013-04-08 22:42:00,
2013-04-08 15:53:00,45.0,27.0,30.11,West,272,3.0,7.0,49,0.00,,,0.00,,2013-04-08 22:53:00,
2013-04-08 16:02:00,45.0,27.0,30.11,North,5,4.0,12.0,48,0.00,,,0.00,,2013-04-08 23:02:00,
2013-04-08 16:12:00,45.0,27.0,30.11,North,5,4.0,12.0,48,0.00,,,0.00,,2013-04-08 23:12:00,
2013-04-08 16:22:00,45.0,27.0,30.11,North,5,4.0,12.0,48,0.00,,,0.00,,2013-04-08 23:22:00,
2013-04-08 16:32:00,45.0,26.0,30.11,NE,40,5.0,12.0,47,0.00,,,0.00,,2013-04-08 23:32:00,
2013-04-08 16:42:00,45.0,26.0,30.11,NE,40,5.0,12.0,47,0.00,,,0.00,,2013-04-08 23:42:00,
2013-04-08 16:52:00,47.0,26.0,30.12,NW,315,4.0,10.0,44,0.00,,,0.00,,2013-04-08 23:52:00,
2013-04-08 17:02:00,46.0,27.0,30.12,NNW,334,3.0,9.0,47,0.00,,,0.00,,2013-04-09 00:02:00,
2013-04-08 17:12:00,46.0,27.0,30.12,NNW,334,3.0,9.0,47,0.00,,,0.00,,2013-04-09 00:12:00,
2013-04-08 17:22:00,46.0,25.0,30.12,WSW,250,3.0,13.0,43,0.00,,,0.00,,2013-04-09 00:22:00,
2013-04-08 17:42:00,46.0,25.0,30.12,NW,320,5.0,10.0,44,0.00,,,0.00,,2013-04-09 00:42:00,
2013-04-08 17:52:00,45.0,27.0,30.12,North,355,4.0,9.0,48,0.00,,,0.00,,2013-04-09 00:52:00,
2013-04-08 18:02:00,47.0,26.0,30.13,NNE,17,10.0,16.0,43,0.00,,,0.00,,2013-04-09 01:02:00,
2013-04-08 18:12:00,47.0,26.0,30.13,NNE,17,10.0,16.0,43,0.00,,,0.00,,2013-04-09 01:12:00,
2013-04-08 18:22:00,45.0,24.0,30.13,NE,39,10.0,14.0,44,0.00,,,0.00,,2013-04-09 01:22:00,
2013-04-08 18:32:00,44.0,25.0,30.13,North,5,3.0,13.0,46,0.00,,,0.00,,2013-04-09 01:32:00,
2013-04-08 18:42:00,43.0,25.0,30.14,North,360,1.0,6.0,48,0.00,,,0.00,,2013-04-09 01:42:00,
2013-04-08 18:52:00,43.0,25.0,30.14,North,360,1.0,6.0,48,0.00,,,0.00,,2013-04-09 01:52:00,
2013-04-08 19:02:00,43.0,25.0,30.15,NNE,22,5.0,14.0,48,0.00,,,0.00,,2013-04-09 02:02:00,
2013-04-08 19:11:00,43.0,25.0,30.15,NNE,22,5.0,14.0,48,0.00,,,0.00,,2013-04-09 02:11:00,
2013-04-08 19:22:00,41.0,27.0,30.16,WSW,246,1.0,8.0,58,0.00,,,0.00,,2013-04-09 02:22:00,
2013-04-08 19:32:00,40.0,28.0,30.16,WNW,294,2.0,10.0,63,0.00,,,0.00,,2013-04-09 02:32:00,
2013-04-08 19:42:00,40.0,28.0,30.16,WNW,294,2.0,10.0,63,0.00,,,0.00,,2013-04-09 02:42:00,
2013-04-08 19:52:00,38.0,28.0,30.17,WNW,292,1.0,5.0,67,0.00,,,0.00,,2013-04-09 02:52:00,
2013-04-08 20:02:00,37.0,28.0,30.17,NW,311,1.0,7.0,69,0.00,,,0.00,,2013-04-09 03:02:00,
2013-04-08 20:12:00,37.0,28.0,30.17,NW,311,1.0,7.0,69,0.00,,,0.00,,2013-04-09 03:12:00,
2013-04-08 20:21:00,36.0,28.0,30.17,West,267,0.0,4.0,71,0.00,,,0.00,,2013-04-09 03:21:00,
2013-04-08 20:32:00,36.0,28.0,30.18,WNW,284,2.0,4.0,72,0.00,,,0.00,,2013-04-09 03:32:00,
2013-04-08 20:42:00,36.0,28.0,30.18,WNW,284,2.0,4.0,72,0.00,,,0.00,,2013-04-09 03:42:00,
2013-04-08 20:53:00,35.0,27.0,30.19,WNW,290,1.0,3.0,73,0.00,,,0.00,,2013-04-09 03:53:00,
2013-04-08 21:02:00,35.0,28.0,30.19,WNW,289,0.0,2.0,74,0.00,,,0.00,,2013-04-09 04:02:00,
2013-04-08 21:12:00,35.0,28.0,30.19,WNW,289,0.0,2.0,74,0.00,,,0.00,,2013-04-09 04:12:00,
2013-04-08 21:22:00,33.0,27.0,30.20,SW,227,1.0,4.0,77,0.00,,,0.00,,2013-04-09 04:22:00,
2013-04-08 21:32:00,33.0,27.0,30.20,SW,227,1.0,4.0,77,0.00,,,0.00,,2013-04-09 04:32:00,
2013-04-08 21:42:00,33.0,27.0,30.20,SW,227,1.0,4.0,77,0.00,,,0.00,,2013-04-09 04:42:00,
2013-04-08 21:53:00,33.0,27.0,30.20,SW,227,1.0,4.0,77,0.00,,,0.00,,2013-04-09 04:53:00,
2013-04-08 22:02:00,30.0,25.0,30.21,SSE,167,0.0,2.0,82,0.00,,,0.00,,2013-04-09 05:02:00,
2013-04-08 22:12:00,30.0,25.0,30.21,SSE,167,0.0,2.0,82,0.00,,,0.00,,2013-04-09 05:12:00,
2013-04-08 22:22:00,29.0,25.0,30.22,South,173,0.0,3.0,84,0.00,,,0.00,,2013-04-09 05:22:00,
2013-04-08 22:32:00,28.0,24.0,30.22,South,173,1.0,2.0,85,0.00,,,0.00,,2013-04-09 05:32:00,
2013-04-08 22:42:00,28.0,24.0,30.22,South,173,0.0,2.0,85,0.00,,,0.00,,2013-04-09 05:42:00,
2013-04-08 22:52:00,28.0,24.0,30.22,South,173,0.0,2.0,85,0.00,,,0.00,,2013-04-09 05:52:00,
2013-04-08 23:02:00,28.0,24.0,30.22,South,173,1.0,2.0,86,0.00,,,0.00,,2013-04-09 06:02:00,
2013-04-08 23:12:00,27.0,24.0,30.23,South,173,0.0,0.0,87,0.00,,,0.00,,2013-04-09 06:12:00,
2013-04-08 23:22:00,27.0,24.0,30.23,South,173,0.0,0.0,87,0.00,,,0.00,,2013-04-09 06:22:00,
2013-04-08 23:32:00,27.0,23.0,30.23,South,173,0.0,3.0,86,0.00,,,0.00,,2013-04-09 06:32:00,
2013-04-08 23:42:00,27.0,23.0,30.23,South,173,0.0,3.0,86,0.00,,,0.00,,2013-04-09 06:42:00,
2013-04-08 23:52:00,28.0,25.0,30.23,South,173,0.0,3.0,87,0.00,,,0.00,,2013-04-09 06:52:00,